Quincey Cenac — WDI9133 — position and weather

sailwx.info

Track history (hours):
 
Tides and Currents Weather Stations Pressure Air Temp Water Temp Dewpoint Dewpoint Depression Visibility Wind Speed Wind Dir Waves Ship Positions

Quincey Cenac

Owner: Cenac Marine Services, Houma, LA. More information available from US FCC via Universal Licensing System and Coast Guard Vessel Documentation Center.

Last reported at 2017-Oct-13 22:02 UTC. Time now 2017-Oct-19 09:12 UTC.
Position N 29°34' W 094°55'.

Length 22 m; draft 9.6 m.

Type: Tug. MMSI: 367745570.

Date/timePositionNaut miles runAvg speedWind from/ knotsBaromVisibWave heightAir tempDewpointWater temp
2017-Oct-13 22:02N 29°34' W 094°55'0 6.9
2017-Oct-13 22:00N 29°34' W 094°55'4 7.0
2017-Oct-13 21:30N 29°37' W 094°57'4 7.2
2017-Oct-13 20:59N 29°40' W 094°59'  
2017-Oct-10 01:39N 29°44' W 095°08'5 0.2
2017-Oct-08 21:31N 29°44' W 095°13'0 2.1
2017-Oct-08 21:29N 29°44' W 095°13'11 4.8
2017-Oct-08 19:15N 29°42' W 095°01'2 5.8
2017-Oct-08 18:59N 29°42' W 094°59'3 6.1
2017-Oct-08 18:30N 29°39' W 094°58'5 6.9
2017-Oct-08 17:46N 29°34' W 094°56'  
Track history (hours):
 
Tides and Currents Weather Stations Pressure Air Temp Water Temp Dewpoint Dewpoint Depression Visibility Wind Speed Wind Dir Waves Ship Positions

Quincey Cenac

Owner: Cenac Marine Services, Houma, LA. More information available from US FCC via Universal Licensing System and Coast Guard Vessel Documentation Center.

Last reported at 2017-Oct-13 22:02 UTC. Time now 2017-Oct-19 09:12 UTC.
Position N 29°34' W 094°55'.

Length 22 m; draft 9.6 m.

Type: Tug. MMSI: 367745570.

Date/timePositionNaut miles runAvg speedWind from/ knotsBaromVisibWave heightAir tempDewpointWater temp
2017-Oct-13 22:02N 29°34' W 094°55'0 6.9
2017-Oct-13 22:00N 29°34' W 094°55'4 7.0
2017-Oct-13 21:30N 29°37' W 094°57'4 7.2
2017-Oct-13 20:59N 29°40' W 094°59'  
2017-Oct-10 01:39N 29°44' W 095°08'5 0.2
2017-Oct-08 21:31N 29°44' W 095°13'0 2.1
2017-Oct-08 21:29N 29°44' W 095°13'11 4.8
2017-Oct-08 19:15N 29°42' W 095°01'2 5.8
2017-Oct-08 18:59N 29°42' W 094°59'3 6.1
2017-Oct-08 18:30N 29°39' W 094°58'5 6.9
2017-Oct-08 17:46N 29°34' W 094°56'  

Dump ship's entire track history